• Join FlightAware (Why Join?)
  • Login
  • US Flag 
04:17AM EDT


 

Airport Tracker/Info


-or-


 

Live Flight TrackerFlight Track Log ✈ FDX697 ✈ 05-Oct-2013 ✈ KDSM - KMEM

Flight Track Log - Related Links

Times and Time Zones

All times are in EDT time to prevent confusion due to time zone crossing. See the FDX697 flight status page for this flight to view local times or setup timezone preferences in your user account.

Time Position Orientation Groundspeed Altitude Reporting Facility
EDT Latitude Longitude Course Direction KTS MPH feet Rate Location/Type
08:29AM 41.5303 -93.6642 232° Southwest 158 182 1,400  Level Minneapolis Center
08:30AM 41.5058 -93.7064 232° Southwest 170 196 3,200 2,280 Climbing Minneapolis Center
08:31AM 41.4472 -93.6908 169° South 263 303 5,600 2,700 Climbing Minneapolis Center
08:32AM 41.3906 -93.6547 154° Southeast 255 293 8,300 2,640 Climbing Minneapolis Center
08:33AM 41.3333 -93.6058 147° Southeast 265 305 10,600 2,340 Climbing Minneapolis Center
08:38AM 40.8690 -93.0720 147° Southeast 433 498 24,000 2,340 Climbing FlightAware
08:39AM 40.8320 -93.0030 125° Southeast 437 503 25,100 900 Climbing FlightAware
08:39AM 40.7930 -92.9340 127° Southeast 437 503 25,100  Level FlightAware
08:40AM 40.7560 -92.8660 126° Southeast 437 503 25,100 2,460 Level FlightAware
08:41AM 40.6960 -92.7600 127° Southeast 462 532 28,100 3,240 Climbing FlightAware
08:41AM 40.6640 -92.7030 126° Southeast 468 539 28,600 1,440 Climbing FlightAware
08:42AM 40.6200 -92.6240 126° Southeast 470 541 29,600 1,860 Climbing FlightAware
08:42AM 40.5670 -92.5300 127° Southeast 469 540 30,900 1,740 Climbing FlightAware
08:43AM 40.5020 -92.4170 127° Southeast 474 545 32,200 1,740 Climbing FlightAware
08:44AM 40.4460 -92.3160 126° Southeast 472 543 33,600 1,800 Climbing FlightAware
08:45AM 40.3920 -92.2220 127° Southeast 471 542 34,800 1,020 Climbing FlightAware
08:45AM 40.3400 -92.1430 131° Southeast 457 526 35,000 180 Climbing FlightAware
08:46AM 40.3020 -92.1080 145° Southeast 442 509 35,000  Level FlightAware
08:46AM 40.2550 -92.0830 158° South 428 493 35,000  Level FlightAware
08:47AM 40.1780 -92.0590 167° South 427 491 35,000  Level FlightAware
08:47AM 40.1050 -92.0390 168° South 427 491 35,000  Level FlightAware
08:48AM 40.0380 -92.0200 168° South 428 493 35,000  Level FlightAware
08:48AM 39.9660 -91.9990 167° South 432 497 35,000  Level FlightAware
08:49AM 39.9050 -91.9820 168° South 432 497 35,000  Level FlightAware
08:50AM 39.8370 -91.9620 167° South 433 498 35,000  Level FlightAware
08:50AM 39.7610 -91.9410 168° South 434 499 35,000  Level FlightAware
08:51AM 39.6990 -91.9230 167° South 435 501 35,000  Level FlightAware
08:51AM 39.6270 -91.9030 168° South 436 502 35,000  Level FlightAware
08:52AM 39.5550 -91.8820 167° South 436 502 35,000  Level FlightAware
08:52AM 39.4920 -91.8640 168° South 437 503 35,000  Level FlightAware
08:53AM 39.4230 -91.8450 168° South 436 502 35,000  Level FlightAware
08:54AM 39.3530 -91.8250 168° South 434 499 35,000  Level FlightAware
08:54AM 39.2850 -91.8060 168° South 433 498 35,000  Level FlightAware
08:55AM 39.2140 -91.7860 168° South 431 496 35,000  Level FlightAware
08:55AM 39.1410 -91.7660 168° South 429 494 35,000  Level FlightAware
08:56AM 39.0710 -91.7460 167° South 429 494 35,000  Level FlightAware
08:57AM 39.0120 -91.7300 168° South 427 491 35,000  Level FlightAware
08:57AM 38.9440 -91.7110 168° South 427 491 35,000  Level FlightAware
08:58AM 38.8720 -91.6910 168° South 427 491 35,000  Level FlightAware
08:58AM 38.8080 -91.6730 168° South 429 494 35,000  Level FlightAware
08:59AM 38.7330 -91.6520 168° South 435 501 35,000  Level FlightAware
08:59AM 38.6690 -91.6350 168° South 437 503 35,000  Level FlightAware
09:00AM 38.6050 -91.6170 168° South 439 505 35,000  Level FlightAware
09:01AM 38.5260 -91.5950 168° South 441 507 35,000  Level FlightAware
09:01AM 38.4610 -91.5780 168° South 442 509 35,000  Level FlightAware
09:02AM 38.3880 -91.5570 167° South 444 511 35,000  Level FlightAware
09:02AM 38.3130 -91.5370 168° South 445 512 35,000  Level FlightAware
09:03AM 38.2470 -91.5190 168° South 446 513 35,000  Level FlightAware
09:04AM 38.1760 -91.5000 168° South 447 514 35,000  Level FlightAware
09:04AM 38.1030 -91.4800 168° South 447 514 35,000 -180 Level FlightAware
09:05AM 38.0330 -91.4610 168° South 445 512 34,800 -780 Descending FlightAware
09:05AM 37.9610 -91.4410 168° South 447 514 34,100 -720 Descending FlightAware
09:06AM 37.8990 -91.4250 168° South 446 513 34,000 -120 Descending FlightAware
09:06AM 37.8240 -91.4050 168° South 446 513 34,000  Level FlightAware
09:07AM 37.7550 -91.3860 168° South 450 518 34,000  Level FlightAware
09:08AM 37.6820 -91.3660 168° South 456 525 34,000  Level FlightAware
09:08AM 37.6060 -91.3460 168° South 461 531 34,000  Level FlightAware
09:09AM 37.5260 -91.3250 168° South 466 536 34,000  Level FlightAware
09:09AM 37.4580 -91.3070 168° South 469 540 34,000  Level FlightAware
09:10AM 37.3840 -91.2870 168° South 471 542 34,000  Level FlightAware
09:11AM 37.3100 -91.2670 168° South 470 541 34,000 -600 Level FlightAware
09:11AM 37.1920 -91.2360 168° South 465 535 33,100 -660 Descending FlightAware
09:12AM 37.1170 -91.2160 168° South 464 534 33,000 -120 Descending FlightAware
09:13AM 37.0470 -91.1980 168° South 464 534 33,000  Level FlightAware
09:13AM 36.9700 -91.1780 168° South 465 535 33,000  Level FlightAware
09:14AM 36.8940 -91.1570 168° South 455 524 33,000  Level FlightAware
09:14AM 36.8210 -91.1380 168° South 452 520 33,000  Level FlightAware
09:15AM 36.7570 -91.1210 168° South 451 519 33,000  Level FlightAware
09:16AM 36.6820 -91.1020 169° South 449 517 33,000  Level FlightAware
09:16AM 36.6130 -91.0840 168° South 448 516 33,000  Level FlightAware
09:17AM 36.5370 -91.0640 168° South 446 513 33,000  Level FlightAware
09:17AM 36.4720 -91.0470 168° South 445 512 33,000 -540 Level FlightAware
09:18AM 36.4000 -91.0290 169° South 438 504 32,400 -1,860 Descending FlightAware
09:18AM 36.3340 -91.0110 168° South 440 506 30,900 -2,880 Descending FlightAware
09:19AM 36.2550 -90.9910 168° South 442 509 29,000 -2,040 Descending FlightAware
09:20AM 36.1630 -90.9670 168° South 442 509 27,900 -780 Descending FlightAware
09:21AM 36.1000 -90.9510 168° South 442 509 27,900  Level FlightAware
09:21AM 36.0390 -90.9350 168° South 442 509 27,900  Level FlightAware
09:22AM 35.9780 -90.9190 168° South 442 509 27,900  Level FlightAware
09:22AM 35.9170 -90.9030 168° South 442 509 27,900  Level FlightAware
09:23AM 35.8560 -90.8860 167° South 442 509 27,900 -5,100 Level FlightAware
09:24AM 35.7480 -90.8590 169° South 383 441 21,000 -4,800 Descending FlightAware
09:24AM 35.6800 -90.8420 169° South 383 441 20,800 -1,020 Descending FlightAware
09:25AM 35.5980 -90.8200 168° South 374 430 19,500 -960 Descending FlightAware
09:26AM 35.5460 -90.8070 169° South 374 430 19,500  Level FlightAware
09:26AM 35.4950 -90.7930 167° South 374 430 19,500 -3,600 Level FlightAware
09:27AM 35.4660 -90.7720 149° Southeast 368 423 17,000 -10,140 Descending FlightAware
09:27AM 35.4530 -90.7540 132° Southeast 374 430 16,800 -1,440 Descending FlightAware
09:27AM 35.4360 -90.7160 119° Southeast 379 436 16,300 -540 Descending FlightAware
09:28AM 35.4100 -90.6500 116° Southeast 379 436 16,300  Level FlightAware
09:28AM 35.3870 -90.5910 116° Southeast 379 436 16,300  Level FlightAware
09:29AM 35.3630 -90.5310 116° Southeast 379 436 16,300  Level FlightAware
09:29AM 35.3400 -90.4720 116° Southeast 379 436 16,300 -2,820 Level FlightAware
09:30AM 35.2990 -90.4040 126° Southeast 321 369 13,400 -3,240 Descending FlightAware
09:31AM 35.2600 -90.3490 131° Southeast 301 346 12,700 -720 Descending FlightAware
09:31AM 35.2320 -90.3070 129° Southeast 299 344 12,500 -1,500 Descending FlightAware
09:32AM 35.2040 -90.2650 129° Southeast 294 338 11,100 -1,500 Descending FlightAware
09:33AM 35.1590 -90.1970 129° Southeast 292 336 10,400 -1,260 Descending FlightAware
09:33AM 35.1330 -90.1590 130° Southeast 275 316 9,400 -1,860 Descending FlightAware
09:34AM 35.1000 -90.1160 133° Southeast 258 297 8,400 -960 Descending FlightAware
09:34AM 35.0740 -90.0980 150° Southeast 257 296 8,300 -120 Descending FlightAware
09:35AM 35.0530 -90.0830 150° Southeast 257 296 8,300 -3,180 Level FlightAware
09:35AM 35.0130 -90.1100 209° Southwest 240 276 5,900 -3,960 Descending FlightAware
09:35AM 34.9880 -90.1090 178° South 229 264 5,300 -1,800 Descending FlightAware
09:36AM 34.9710 -90.1080 177° South 224 258 4,700 -900 Descending FlightAware
09:36AM 34.9490 -90.1070 178° South 224 258 4,700 -1,860 Level FlightAware
09:37AM 34.9000 -90.1000 178° South 215 247 2,700 -1,620 Descending KMEM
09:38AM 34.8833 -90.0500 112° Southeast 225 259 2,000 -420 Descending KMEM
09:39AM 34.9167 -89.9833 59° Northeast 214 246 1,900 -300 Descending KMEM
09:40AM 34.9667 -89.9833 360° North 191 220 1,500 -420 Descending KMEM
09:42AM 35.0333 -89.9667 129° Southeast  Level FlightAware Approximate
09:49AM 35.0424 -89.9767 129° Southeast  Level Estimated